sensor_id;sensor_type;location;lat;lon;timestamp;P1;durP1;ratioP1;P2;durP2;ratioP2
61590;SDS011;71994;52.410;-1.966;2024-02-14T00:02:14;3.05;;;0.60;;
61590;SDS011;71994;52.410;-1.966;2024-02-14T00:05:23;2.05;;;0.50;;
61590;SDS011;71994;52.410;-1.966;2024-02-14T00:08:31;0.73;;;0.30;;
61590;SDS011;71994;52.410;-1.966;2024-02-14T00:11:45;1.50;;;0.40;;
61590;SDS011;71994;52.410;-1.966;2024-02-14T00:14:55;1.05;;;0.32;;
61590;SDS011;71994;52.410;-1.966;2024-02-14T00:18:10;1.05;;;0.40;;
61590;SDS011;71994;52.410;-1.966;2024-02-14T00:21:29;3.30;;;0.40;;
61590;SDS011;71994;52.410;-1.966;2024-02-14T00:24:42;2.53;;;0.60;;
61590;SDS011;71994;52.410;-1.966;2024-02-14T00:27:58;1.60;;;0.40;;
61590;SDS011;71994;52.410;-1.966;2024-02-14T00:31:09;1.17;;;0.40;;
61590;SDS011;71994;52.410;-1.966;2024-02-14T00:34:20;1.92;;;0.50;;
61590;SDS011;71994;52.410;-1.966;2024-02-14T00:37:29;0.97;;;0.30;;
61590;SDS011;71994;52.410;-1.966;2024-02-14T00:40:40;0.75;;;0.40;;
61590;SDS011;71994;52.410;-1.966;2024-02-14T00:43:56;1.13;;;0.40;;
61590;SDS011;71994;52.410;-1.966;2024-02-14T00:47:12;1.13;;;0.40;;
61590;SDS011;71994;52.410;-1.966;2024-02-14T00:50:25;1.15;;;0.47;;
61590;SDS011;71994;52.410;-1.966;2024-02-14T00:53:33;1.95;;;0.75;;
61590;SDS011;71994;52.410;-1.966;2024-02-14T00:56:40;0.65;;;0.30;;
61590;SDS011;71994;52.410;-1.966;2024-02-14T00:59:49;2.05;;;0.60;;
61590;SDS011;71994;52.410;-1.966;2024-02-14T01:02:55;2.50;;;0.63;;
61590;SDS011;71994;52.410;-1.966;2024-02-14T01:06:08;2.95;;;0.65;;
61590;SDS011;71994;52.410;-1.966;2024-02-14T01:09:23;1.80;;;0.60;;
61590;SDS011;71994;52.410;-1.966;2024-02-14T01:12:30;1.67;;;0.57;;
61590;SDS011;71994;52.410;-1.966;2024-02-14T01:15:42;1.55;;;0.50;;
61590;SDS011;71994;52.410;-1.966;2024-02-14T01:21:59;1.13;;;0.45;;
61590;SDS011;71994;52.410;-1.966;2024-02-14T01:25:06;1.70;;;0.60;;
61590;SDS011;71994;52.410;-1.966;2024-02-14T01:28:18;2.35;;;0.70;;
61590;SDS011;71994;52.410;-1.966;2024-02-14T01:31:30;1.60;;;0.60;;
61590;SDS011;71994;52.410;-1.966;2024-02-14T01:34:40;1.88;;;0.50;;
61590;SDS011;71994;52.410;-1.966;2024-02-14T01:37:50;1.85;;;0.50;;
61590;SDS011;71994;52.410;-1.966;2024-02-14T01:41:00;2.15;;;0.60;;
61590;SDS011;71994;52.410;-1.966;2024-02-14T01:44:14;1.55;;;0.60;;
61590;SDS011;71994;52.410;-1.966;2024-02-14T01:47:26;1.55;;;0.57;;
61590;SDS011;71994;52.410;-1.966;2024-02-14T01:50:36;1.73;;;0.68;;
61590;SDS011;71994;52.410;-1.966;2024-02-14T01:53:44;1.75;;;0.45;;
61590;SDS011;71994;52.410;-1.966;2024-02-14T01:56:52;1.40;;;0.70;;
61590;SDS011;71994;52.410;-1.966;2024-02-14T02:00:02;1.35;;;0.60;;
61590;SDS011;71994;52.410;-1.966;2024-02-14T02:03:23;2.55;;;0.80;;
61590;SDS011;71994;52.410;-1.966;2024-02-14T02:06:41;3.13;;;0.60;;
61590;SDS011;71994;52.410;-1.966;2024-02-14T02:09:48;1.63;;;0.60;;
61590;SDS011;71994;52.410;-1.966;2024-02-14T02:13:00;1.58;;;0.50;;
61590;SDS011;71994;52.410;-1.966;2024-02-14T02:16:09;2.37;;;0.57;;
61590;SDS011;71994;52.410;-1.966;2024-02-14T02:19:25;2.05;;;0.60;;
61590;SDS011;71994;52.410;-1.966;2024-02-14T02:22:35;2.60;;;0.52;;
61590;SDS011;71994;52.410;-1.966;2024-02-14T02:25:48;1.25;;;0.52;;
61590;SDS011;71994;52.410;-1.966;2024-02-14T02:28:56;1.75;;;0.60;;
61590;SDS011;71994;52.410;-1.966;2024-02-14T02:32:07;1.25;;;0.50;;
61590;SDS011;71994;52.410;-1.966;2024-02-14T02:35:15;1.67;;;0.73;;
61590;SDS011;71994;52.410;-1.966;2024-02-14T02:38:27;1.40;;;0.55;;
61590;SDS011;71994;52.410;-1.966;2024-02-14T02:41:41;1.27;;;0.43;;
61590;SDS011;71994;52.410;-1.966;2024-02-14T02:44:50;1.35;;;0.55;;
61590;SDS011;71994;52.410;-1.966;2024-02-14T02:47:57;1.88;;;0.60;;
61590;SDS011;71994;52.410;-1.966;2024-02-14T02:51:04;1.75;;;0.50;;
61590;SDS011;71994;52.410;-1.966;2024-02-14T02:54:25;1.63;;;0.70;;
61590;SDS011;71994;52.410;-1.966;2024-02-14T02:57:36;1.42;;;0.60;;
61590;SDS011;71994;52.410;-1.966;2024-02-14T03:00:42;1.30;;;0.60;;
61590;SDS011;71994;52.410;-1.966;2024-02-14T03:03:53;1.58;;;0.50;;
61590;SDS011;71994;52.410;-1.966;2024-02-14T03:07:05;1.13;;;0.50;;
61590;SDS011;71994;52.410;-1.966;2024-02-14T03:10:14;1.90;;;0.80;;
61590;SDS011;71994;52.410;-1.966;2024-02-14T03:16:35;1.25;;;0.40;;
61590;SDS011;71994;52.410;-1.966;2024-02-14T03:19:43;1.38;;;0.50;;
61590;SDS011;71994;52.410;-1.966;2024-02-14T03:22:51;1.52;;;0.50;;
61590;SDS011;71994;52.410;-1.966;2024-02-14T03:26:00;0.80;;;0.45;;
61590;SDS011;71994;52.410;-1.966;2024-02-14T03:29:13;0.80;;;0.43;;
61590;SDS011;71994;52.410;-1.966;2024-02-14T03:32:23;0.80;;;0.40;;
61590;SDS011;71994;52.410;-1.966;2024-02-14T03:38:43;1.15;;;0.50;;
61590;SDS011;71994;52.410;-1.966;2024-02-14T03:41:54;1.70;;;0.50;;
61590;SDS011;71994;52.410;-1.966;2024-02-14T03:45:07;1.35;;;0.50;;
61590;SDS011;71994;52.410;-1.966;2024-02-14T03:48:17;1.08;;;0.60;;
61590;SDS011;71994;52.410;-1.966;2024-02-14T03:51:31;1.10;;;0.40;;
61590;SDS011;71994;52.410;-1.966;2024-02-14T03:54:41;1.67;;;0.60;;
61590;SDS011;71994;52.410;-1.966;2024-02-14T03:57:52;1.63;;;0.40;;
61590;SDS011;71994;52.410;-1.966;2024-02-14T04:01:06;0.90;;;0.40;;
61590;SDS011;71994;52.410;-1.966;2024-02-14T04:04:14;0.77;;;0.30;;
61590;SDS011;71994;52.410;-1.966;2024-02-14T04:07:21;0.88;;;0.40;;
61590;SDS011;71994;52.410;-1.966;2024-02-14T04:10:29;1.00;;;0.40;;
61590;SDS011;71994;52.410;-1.966;2024-02-14T04:13:35;0.93;;;0.40;;
61590;SDS011;71994;52.410;-1.966;2024-02-14T04:16:49;1.40;;;0.40;;
61590;SDS011;71994;52.410;-1.966;2024-02-14T04:19:55;1.48;;;0.60;;
61590;SDS011;71994;52.410;-1.966;2024-02-14T04:23:09;0.85;;;0.50;;
61590;SDS011;71994;52.410;-1.966;2024-02-14T04:26:18;1.77;;;0.30;;
61590;SDS011;71994;52.410;-1.966;2024-02-14T04:29:30;1.15;;;0.40;;
61590;SDS011;71994;52.410;-1.966;2024-02-14T04:32:42;1.85;;;0.40;;
61590;SDS011;71994;52.410;-1.966;2024-02-14T04:35:49;0.68;;;0.30;;
61590;SDS011;71994;52.410;-1.966;2024-02-14T04:38:59;1.58;;;0.50;;
61590;SDS011;71994;52.410;-1.966;2024-02-14T04:42:10;1.25;;;0.50;;
61590;SDS011;71994;52.410;-1.966;2024-02-14T04:45:37;0.60;;;0.30;;
61590;SDS011;71994;52.410;-1.966;2024-02-14T04:48:49;0.50;;;0.30;;
61590;SDS011;71994;52.410;-1.966;2024-02-14T04:52:02;0.60;;;0.35;;
61590;SDS011;71994;52.410;-1.966;2024-02-14T04:55:11;0.65;;;0.40;;
61590;SDS011;71994;52.410;-1.966;2024-02-14T04:58:23;1.10;;;0.32;;
61590;SDS011;71994;52.410;-1.966;2024-02-14T05:01:45;0.93;;;0.40;;
61590;SDS011;71994;52.410;-1.966;2024-02-14T05:04:56;0.80;;;0.30;;
61590;SDS011;71994;52.410;-1.966;2024-02-14T05:08:11;1.38;;;0.30;;
61590;SDS011;71994;52.410;-1.966;2024-02-14T05:11:27;0.80;;;0.38;;
61590;SDS011;71994;52.410;-1.966;2024-02-14T05:14:37;2.28;;;0.60;;
61590;SDS011;71994;52.410;-1.966;2024-02-14T05:17:44;1.05;;;0.30;;
61590;SDS011;71994;52.410;-1.966;2024-02-14T05:20:55;0.88;;;0.40;;
61590;SDS011;71994;52.410;-1.966;2024-02-14T05:24:10;0.68;;;0.32;;
61590;SDS011;71994;52.410;-1.966;2024-02-14T05:27:17;0.60;;;0.30;;
61590;SDS011;71994;52.410;-1.966;2024-02-14T05:30:24;0.90;;;0.30;;
61590;SDS011;71994;52.410;-1.966;2024-02-14T05:33:36;0.65;;;0.30;;
61590;SDS011;71994;52.410;-1.966;2024-02-14T05:36:46;1.10;;;0.50;;
61590;SDS011;71994;52.410;-1.966;2024-02-14T05:39:54;1.08;;;0.28;;
61590;SDS011;71994;52.410;-1.966;2024-02-14T05:43:03;0.60;;;0.40;;
61590;SDS011;71994;52.410;-1.966;2024-02-14T05:46:12;1.25;;;0.40;;
61590;SDS011;71994;52.410;-1.966;2024-02-14T05:49:21;4.10;;;0.50;;
61590;SDS011;71994;52.410;-1.966;2024-02-14T05:52:31;1.95;;;0.60;;
61590;SDS011;71994;52.410;-1.966;2024-02-14T05:58:44;2.08;;;0.50;;
61590;SDS011;71994;52.410;-1.966;2024-02-14T06:01:53;2.10;;;0.40;;
61590;SDS011;71994;52.410;-1.966;2024-02-14T06:05:04;1.02;;;0.30;;
61590;SDS011;71994;52.410;-1.966;2024-02-14T06:08:17;3.35;;;0.60;;
61590;SDS011;71994;52.410;-1.966;2024-02-14T06:11:29;3.95;;;0.60;;
61590;SDS011;71994;52.410;-1.966;2024-02-14T06:14:36;3.63;;;0.60;;
61590;SDS011;71994;52.410;-1.966;2024-02-14T06:17:46;2.22;;;0.50;;
61590;SDS011;71994;52.410;-1.966;2024-02-14T06:21:02;1.95;;;0.47;;
61590;SDS011;71994;52.410;-1.966;2024-02-14T06:24:14;1.98;;;0.50;;
61590;SDS011;71994;52.410;-1.966;2024-02-14T06:27:24;2.47;;;0.55;;
61590;SDS011;71994;52.410;-1.966;2024-02-14T06:30:32;1.63;;;0.40;;
61590;SDS011;71994;52.410;-1.966;2024-02-14T06:33:38;3.45;;;0.47;;
61590;SDS011;71994;52.410;-1.966;2024-02-14T06:36:46;1.27;;;0.50;;
61590;SDS011;71994;52.410;-1.966;2024-02-14T06:39:56;2.00;;;0.47;;
61590;SDS011;71994;52.410;-1.966;2024-02-14T06:43:02;1.23;;;0.40;;
61590;SDS011;71994;52.410;-1.966;2024-02-14T06:46:11;2.05;;;0.35;;
61590;SDS011;71994;52.410;-1.966;2024-02-14T06:49:18;0.98;;;0.40;;
61590;SDS011;71994;52.410;-1.966;2024-02-14T06:52:26;1.15;;;0.40;;
61590;SDS011;71994;52.410;-1.966;2024-02-14T06:55:40;1.42;;;0.30;;
61590;SDS011;71994;52.410;-1.966;2024-02-14T06:58:52;2.05;;;0.50;;
61590;SDS011;71994;52.410;-1.966;2024-02-14T07:02:07;1.73;;;0.73;;
61590;SDS011;71994;52.410;-1.966;2024-02-14T07:05:15;2.00;;;0.40;;
61590;SDS011;71994;52.410;-1.966;2024-02-14T07:08:24;1.13;;;0.50;;
61590;SDS011;71994;52.410;-1.966;2024-02-14T07:11:38;1.20;;;0.40;;
61590;SDS011;71994;52.410;-1.966;2024-02-14T07:14:48;0.55;;;0.17;;
61590;SDS011;71994;52.410;-1.966;2024-02-14T07:18:13;1.02;;;0.32;;
61590;SDS011;71994;52.410;-1.966;2024-02-14T07:21:30;0.63;;;0.30;;
61590;SDS011;71994;52.410;-1.966;2024-02-14T07:28:04;0.73;;;0.20;;
61590;SDS011;71994;52.410;-1.966;2024-02-14T07:31:19;0.88;;;0.30;;
61590;SDS011;71994;52.410;-1.966;2024-02-14T07:34:37;0.77;;;0.40;;
61590;SDS011;71994;52.410;-1.966;2024-02-14T07:38:02;0.50;;;0.30;;
61590;SDS011;71994;52.410;-1.966;2024-02-14T07:41:14;1.08;;;0.38;;
61590;SDS011;71994;52.410;-1.966;2024-02-14T07:44:50;1.92;;;0.38;;
61590;SDS011;71994;52.410;-1.966;2024-02-14T07:48:16;1.83;;;0.35;;
61590;SDS011;71994;52.410;-1.966;2024-02-14T07:51:25;8.38;;;0.50;;
61590;SDS011;71994;52.410;-1.966;2024-02-14T07:54:39;1.88;;;0.52;;
61590;SDS011;71994;52.410;-1.966;2024-02-14T07:57:52;2.35;;;0.50;;
61590;SDS011;71994;52.410;-1.966;2024-02-14T08:04:16;4.22;;;0.50;;
61590;SDS011;71994;52.410;-1.966;2024-02-14T08:07:27;3.67;;;0.20;;
61590;SDS011;71994;52.410;-1.966;2024-02-14T08:10:43;2.08;;;0.40;;
61590;SDS011;71994;52.410;-1.966;2024-02-14T08:13:51;0.70;;;0.30;;
61590;SDS011;71994;52.410;-1.966;2024-02-14T08:17:09;1.83;;;0.40;;
61590;SDS011;71994;52.410;-1.966;2024-02-14T08:20:20;1.85;;;0.40;;
61590;SDS011;71994;52.410;-1.966;2024-02-14T08:23:46;0.85;;;0.40;;
61590;SDS011;71994;52.410;-1.966;2024-02-14T08:27:03;2.28;;;0.40;;
61590;SDS011;71994;52.410;-1.966;2024-02-14T08:34:03;1.23;;;0.60;;
61590;SDS011;71994;52.410;-1.966;2024-02-14T08:41:38;1.60;;;0.60;;
61590;SDS011;71994;52.410;-1.966;2024-02-14T08:45:28;1.40;;;0.40;;
61590;SDS011;71994;52.410;-1.966;2024-02-14T08:48:37;0.98;;;0.60;;
61590;SDS011;71994;52.410;-1.966;2024-02-14T08:51:55;1.73;;;0.60;;
61590;SDS011;71994;52.410;-1.966;2024-02-14T08:55:09;0.80;;;0.40;;
61590;SDS011;71994;52.410;-1.966;2024-02-14T08:58:21;0.93;;;0.52;;
61590;SDS011;71994;52.410;-1.966;2024-02-14T09:02:13;0.80;;;0.40;;
61590;SDS011;71994;52.410;-1.966;2024-02-14T09:05:43;0.80;;;0.40;;
61590;SDS011;71994;52.410;-1.966;2024-02-14T09:09:07;1.85;;;0.50;;
61590;SDS011;71994;52.410;-1.966;2024-02-14T09:12:25;1.05;;;0.50;;
61590;SDS011;71994;52.410;-1.966;2024-02-14T09:20:07;0.73;;;0.40;;
61590;SDS011;71994;52.410;-1.966;2024-02-14T09:24:01;2.08;;;0.40;;
61590;SDS011;71994;52.410;-1.966;2024-02-14T09:31:45;0.80;;;0.40;;
61590;SDS011;71994;52.410;-1.966;2024-02-14T09:35:44;1.27;;;0.47;;
61590;SDS011;71994;52.410;-1.966;2024-02-14T09:39:23;1.55;;;0.50;;
61590;SDS011;71994;52.410;-1.966;2024-02-14T09:42:54;1.17;;;0.52;;
61590;SDS011;71994;52.410;-1.966;2024-02-14T09:46:27;0.90;;;0.40;;
61590;SDS011;71994;52.410;-1.966;2024-02-14T09:49:41;1.40;;;0.45;;
61590;SDS011;71994;52.410;-1.966;2024-02-14T09:52:58;0.88;;;0.35;;
61590;SDS011;71994;52.410;-1.966;2024-02-14T09:56:25;0.43;;;0.40;;
61590;SDS011;71994;52.410;-1.966;2024-02-14T09:59:35;0.98;;;0.40;;
61590;SDS011;71994;52.410;-1.966;2024-02-14T10:02:49;0.60;;;0.30;;
61590;SDS011;71994;52.410;-1.966;2024-02-14T10:06:04;0.32;;;0.30;;
61590;SDS011;71994;52.410;-1.966;2024-02-14T10:10:05;0.60;;;0.30;;
61590;SDS011;71994;52.410;-1.966;2024-02-14T10:13:25;0.32;;;0.30;;
61590;SDS011;71994;52.410;-1.966;2024-02-14T10:16:43;0.40;;;0.30;;
61590;SDS011;71994;52.410;-1.966;2024-02-14T10:24:20;0.30;;;0.20;;
61590;SDS011;71994;52.410;-1.966;2024-02-14T10:27:41;0.57;;;0.30;;
61590;SDS011;71994;52.410;-1.966;2024-02-14T10:30:55;0.63;;;0.30;;
61590;SDS011;71994;52.410;-1.966;2024-02-14T10:37:56;0.88;;;0.38;;
61590;SDS011;71994;52.410;-1.966;2024-02-14T10:41:38;0.55;;;0.30;;
61590;SDS011;71994;52.410;-1.966;2024-02-14T10:45:28;0.30;;;0.20;;
61590;SDS011;71994;52.410;-1.966;2024-02-14T10:49:31;0.40;;;0.20;;
61590;SDS011;71994;52.410;-1.966;2024-02-14T10:52:39;0.30;;;0.20;;
61590;SDS011;71994;52.410;-1.966;2024-02-14T10:56:02;0.80;;;0.30;;
61590;SDS011;71994;52.410;-1.966;2024-02-14T11:02:40;0.57;;;0.30;;
61590;SDS011;71994;52.410;-1.966;2024-02-14T11:06:18;0.30;;;0.30;;
61590;SDS011;71994;52.410;-1.966;2024-02-14T11:09:42;0.60;;;0.40;;
61590;SDS011;71994;52.410;-1.966;2024-02-14T11:13:04;0.43;;;0.40;;
61590;SDS011;71994;52.410;-1.966;2024-02-14T11:16:32;0.28;;;0.25;;
61590;SDS011;71994;52.410;-1.966;2024-02-14T11:19:44;0.75;;;0.30;;
61590;SDS011;71994;52.410;-1.966;2024-02-14T11:23:04;1.02;;;0.30;;
61590;SDS011;71994;52.410;-1.966;2024-02-14T11:26:21;0.65;;;0.40;;
61590;SDS011;71994;52.410;-1.966;2024-02-14T11:29:30;0.50;;;0.20;;
61590;SDS011;71994;52.410;-1.966;2024-02-14T11:33:22;0.77;;;0.30;;
61590;SDS011;71994;52.410;-1.966;2024-02-14T11:36:43;0.40;;;0.30;;
61590;SDS011;71994;52.410;-1.966;2024-02-14T11:40:01;1.33;;;0.45;;
61590;SDS011;71994;52.410;-1.966;2024-02-14T11:43:22;2.38;;;0.75;;
61590;SDS011;71994;52.410;-1.966;2024-02-14T11:46:35;0.45;;;0.22;;
61590;SDS011;71994;52.410;-1.966;2024-02-14T11:49:57;1.30;;;0.30;;
61590;SDS011;71994;52.410;-1.966;2024-02-14T11:53:19;1.00;;;0.30;;
61590;SDS011;71994;52.410;-1.966;2024-02-14T12:00:14;3.35;;;0.32;;
61590;SDS011;71994;52.410;-1.966;2024-02-14T12:03:36;2.28;;;0.32;;
61590;SDS011;71994;52.410;-1.966;2024-02-14T12:06:46;0.85;;;0.43;;
61590;SDS011;71994;52.410;-1.966;2024-02-14T12:11:25;0.95;;;0.30;;
61590;SDS011;71994;52.410;-1.966;2024-02-14T12:14:00;1.65;;;0.38;;
61590;SDS011;71994;52.410;-1.966;2024-02-14T12:17:13;1.02;;;0.40;;
61590;SDS011;71994;52.410;-1.966;2024-02-14T12:20:25;1.50;;;0.40;;
61590;SDS011;71994;52.410;-1.966;2024-02-14T12:23:40;2.67;;;0.47;;
61590;SDS011;71994;52.410;-1.966;2024-02-14T12:26:57;2.20;;;0.47;;
61590;SDS011;71994;52.410;-1.966;2024-02-14T12:30:17;3.85;;;0.50;;
61590;SDS011;71994;52.410;-1.966;2024-02-14T12:33:32;1.25;;;0.40;;
61590;SDS011;71994;52.410;-1.966;2024-02-14T12:36:41;0.60;;;0.30;;
61590;SDS011;71994;52.410;-1.966;2024-02-14T12:43:15;1.23;;;0.47;;
61590;SDS011;71994;52.410;-1.966;2024-02-14T12:46:44;0.90;;;0.40;;
61590;SDS011;71994;52.410;-1.966;2024-02-14T12:50:08;0.77;;;0.35;;
61590;SDS011;71994;52.410;-1.966;2024-02-14T12:53:19;1.70;;;0.50;;
61590;SDS011;71994;52.410;-1.966;2024-02-14T12:57:18;1.60;;;0.30;;
61590;SDS011;71994;52.410;-1.966;2024-02-14T13:00:37;1.10;;;0.47;;
61590;SDS011;71994;52.410;-1.966;2024-02-14T13:04:07;2.28;;;0.40;;
61590;SDS011;71994;52.410;-1.966;2024-02-14T13:07:19;1.20;;;0.40;;
61590;SDS011;71994;52.410;-1.966;2024-02-14T13:10:57;1.48;;;0.40;;
61590;SDS011;71994;52.410;-1.966;2024-02-14T13:14:25;1.90;;;0.50;;
61590;SDS011;71994;52.410;-1.966;2024-02-14T13:17:43;1.35;;;0.40;;
61590;SDS011;71994;52.410;-1.966;2024-02-14T13:21:02;1.50;;;0.50;;
61590;SDS011;71994;52.410;-1.966;2024-02-14T13:24:39;0.80;;;0.40;;
61590;SDS011;71994;52.410;-1.966;2024-02-14T13:28:04;0.90;;;0.40;;
61590;SDS011;71994;52.410;-1.966;2024-02-14T13:31:19;1.95;;;0.40;;
61590;SDS011;71994;52.410;-1.966;2024-02-14T13:35:08;1.52;;;0.50;;
61590;SDS011;71994;52.410;-1.966;2024-02-14T13:38:21;1.05;;;0.45;;
61590;SDS011;71994;52.410;-1.966;2024-02-14T13:41:43;1.10;;;0.40;;
61590;SDS011;71994;52.410;-1.966;2024-02-14T13:45:05;1.00;;;0.43;;
61590;SDS011;71994;52.410;-1.966;2024-02-14T13:48:38;1.13;;;0.50;;
61590;SDS011;71994;52.410;-1.966;2024-02-14T13:51:53;1.27;;;0.60;;
61590;SDS011;71994;52.410;-1.966;2024-02-14T13:55:13;1.45;;;0.60;;
61590;SDS011;71994;52.410;-1.966;2024-02-14T13:58:19;1.73;;;0.50;;
61590;SDS011;71994;52.410;-1.966;2024-02-14T14:01:34;1.77;;;0.60;;
61590;SDS011;71994;52.410;-1.966;2024-02-14T14:05:04;2.20;;;0.60;;
61590;SDS011;71994;52.410;-1.966;2024-02-14T14:08:17;2.22;;;0.57;;
61590;SDS011;71994;52.410;-1.966;2024-02-14T14:11:33;2.47;;;0.63;;
61590;SDS011;71994;52.410;-1.966;2024-02-14T14:14:42;1.88;;;0.60;;
61590;SDS011;71994;52.410;-1.966;2024-02-14T14:17:58;1.13;;;0.50;;
61590;SDS011;71994;52.410;-1.966;2024-02-14T14:21:16;2.08;;;0.70;;
61590;SDS011;71994;52.410;-1.966;2024-02-14T14:24:25;4.43;;;0.80;;
61590;SDS011;71994;52.410;-1.966;2024-02-14T14:27:43;3.10;;;0.93;;
61590;SDS011;71994;52.410;-1.966;2024-02-14T14:31:01;1.83;;;0.70;;
61590;SDS011;71994;52.410;-1.966;2024-02-14T14:34:10;2.53;;;0.80;;
61590;SDS011;71994;52.410;-1.966;2024-02-14T14:37:24;2.15;;;0.77;;
61590;SDS011;71994;52.410;-1.966;2024-02-14T14:40:36;1.67;;;0.50;;
61590;SDS011;71994;52.410;-1.966;2024-02-14T14:43:59;1.58;;;0.50;;
61590;SDS011;71994;52.410;-1.966;2024-02-14T14:47:11;2.67;;;0.88;;
61590;SDS011;71994;52.410;-1.966;2024-02-14T14:50:31;1.70;;;0.75;;
61590;SDS011;71994;52.410;-1.966;2024-02-14T14:53:58;2.45;;;0.80;;
61590;SDS011;71994;52.410;-1.966;2024-02-14T14:57:10;1.77;;;0.60;;
61590;SDS011;71994;52.410;-1.966;2024-02-14T15:00:52;1.83;;;0.70;;
61590;SDS011;71994;52.410;-1.966;2024-02-14T15:04:18;2.85;;;0.80;;
61590;SDS011;71994;52.410;-1.966;2024-02-14T15:07:48;1.88;;;0.70;;
61590;SDS011;71994;52.410;-1.966;2024-02-14T15:11:17;2.22;;;0.70;;
61590;SDS011;71994;52.410;-1.966;2024-02-14T15:15:13;1.90;;;0.57;;
61590;SDS011;71994;52.410;-1.966;2024-02-14T15:18:44;1.48;;;0.63;;
61590;SDS011;71994;52.410;-1.966;2024-02-14T15:21:52;2.05;;;0.75;;
61590;SDS011;71994;52.410;-1.966;2024-02-14T15:25:10;1.50;;;0.60;;
61590;SDS011;71994;52.410;-1.966;2024-02-14T15:28:46;1.98;;;0.63;;
61590;SDS011;71994;52.410;-1.966;2024-02-14T15:32:00;5.03;;;0.90;;
61590;SDS011;71994;52.410;-1.966;2024-02-14T15:35:30;2.55;;;0.90;;
61590;SDS011;71994;52.410;-1.966;2024-02-14T15:38:51;2.55;;;0.75;;
61590;SDS011;71994;52.410;-1.966;2024-02-14T15:42:02;1.65;;;0.73;;
61590;SDS011;71994;52.410;-1.966;2024-02-14T15:45:40;3.80;;;1.10;;
61590;SDS011;71994;52.410;-1.966;2024-02-14T15:48:56;2.70;;;0.88;;
61590;SDS011;71994;52.410;-1.966;2024-02-14T15:52:16;3.90;;;1.13;;
61590;SDS011;71994;52.410;-1.966;2024-02-14T15:55:43;3.03;;;0.80;;
61590;SDS011;71994;52.410;-1.966;2024-02-14T15:59:08;1.90;;;0.80;;
61590;SDS011;71994;52.410;-1.966;2024-02-14T16:02:24;2.50;;;0.82;;
61590;SDS011;71994;52.410;-1.966;2024-02-14T16:05:36;2.08;;;0.75;;
61590;SDS011;71994;52.410;-1.966;2024-02-14T16:13:00;3.17;;;0.88;;
61590;SDS011;71994;52.410;-1.966;2024-02-14T16:16:09;1.98;;;0.90;;
61590;SDS011;71994;52.410;-1.966;2024-02-14T16:22:34;2.33;;;0.88;;
61590;SDS011;71994;52.410;-1.966;2024-02-14T16:26:03;2.35;;;0.90;;
61590;SDS011;71994;52.410;-1.966;2024-02-14T16:29:16;3.58;;;0.90;;
61590;SDS011;71994;52.410;-1.966;2024-02-14T16:32:28;2.53;;;0.82;;
61590;SDS011;71994;52.410;-1.966;2024-02-14T16:35:44;2.35;;;0.80;;
61590;SDS011;71994;52.410;-1.966;2024-02-14T16:39:14;2.55;;;0.90;;
61590;SDS011;71994;52.410;-1.966;2024-02-14T16:42:37;2.85;;;0.90;;
61590;SDS011;71994;52.410;-1.966;2024-02-14T16:45:56;1.35;;;0.68;;
61590;SDS011;71994;52.410;-1.966;2024-02-14T16:49:05;1.67;;;0.60;;
61590;SDS011;71994;52.410;-1.966;2024-02-14T16:52:28;1.92;;;0.77;;
61590;SDS011;71994;52.410;-1.966;2024-02-14T16:55:44;3.08;;;0.90;;
61590;SDS011;71994;52.410;-1.966;2024-02-14T16:59:07;1.73;;;0.60;;
61590;SDS011;71994;52.410;-1.966;2024-02-14T17:02:34;1.30;;;0.68;;
61590;SDS011;71994;52.410;-1.966;2024-02-14T17:05:58;1.73;;;0.80;;
61590;SDS011;71994;52.410;-1.966;2024-02-14T17:09:09;1.75;;;0.80;;
61590;SDS011;71994;52.410;-1.966;2024-02-14T17:12:23;2.03;;;0.80;;
61590;SDS011;71994;52.410;-1.966;2024-02-14T17:15:58;2.25;;;0.88;;
61590;SDS011;71994;52.410;-1.966;2024-02-14T17:19:11;1.60;;;0.68;;
61590;SDS011;71994;52.410;-1.966;2024-02-14T17:22:42;1.10;;;0.70;;
61590;SDS011;71994;52.410;-1.966;2024-02-14T17:25:57;1.33;;;0.60;;
61590;SDS011;71994;52.410;-1.966;2024-02-14T17:29:17;2.08;;;0.80;;
61590;SDS011;71994;52.410;-1.966;2024-02-14T17:32:33;1.55;;;0.70;;
61590;SDS011;71994;52.410;-1.966;2024-02-14T17:35:49;1.85;;;0.68;;
61590;SDS011;71994;52.410;-1.966;2024-02-14T17:39:13;1.77;;;0.70;;
61590;SDS011;71994;52.410;-1.966;2024-02-14T17:42:33;0.98;;;0.60;;
61590;SDS011;71994;52.410;-1.966;2024-02-14T17:45:47;1.52;;;0.60;;
61590;SDS011;71994;52.410;-1.966;2024-02-14T17:49:04;1.50;;;0.63;;
61590;SDS011;71994;52.410;-1.966;2024-02-14T17:52:15;1.35;;;0.65;;
61590;SDS011;71994;52.410;-1.966;2024-02-14T17:55:55;2.08;;;0.70;;
61590;SDS011;71994;52.410;-1.966;2024-02-14T17:58:51;2.03;;;0.88;;
61590;SDS011;71994;52.410;-1.966;2024-02-14T18:02:11;2.03;;;0.70;;
61590;SDS011;71994;52.410;-1.966;2024-02-14T18:09:47;1.48;;;0.50;;
61590;SDS011;71994;52.410;-1.966;2024-02-14T18:13:00;1.88;;;0.95;;
61590;SDS011;71994;52.410;-1.966;2024-02-14T18:16:12;1.40;;;0.68;;
61590;SDS011;71994;52.410;-1.966;2024-02-14T18:19:23;1.67;;;0.63;;
61590;SDS011;71994;52.410;-1.966;2024-02-14T18:22:34;1.58;;;0.65;;
61590;SDS011;71994;52.410;-1.966;2024-02-14T18:25:47;3.72;;;0.77;;
61590;SDS011;71994;52.410;-1.966;2024-02-14T18:29:00;1.52;;;0.60;;
61590;SDS011;71994;52.410;-1.966;2024-02-14T18:32:06;1.92;;;0.50;;
61590;SDS011;71994;52.410;-1.966;2024-02-14T18:35:13;2.13;;;0.63;;
61590;SDS011;71994;52.410;-1.966;2024-02-14T18:38:19;1.13;;;0.60;;
61590;SDS011;71994;52.410;-1.966;2024-02-14T18:41:36;1.20;;;0.60;;
61590;SDS011;71994;52.410;-1.966;2024-02-14T18:44:43;3.58;;;0.68;;
61590;SDS011;71994;52.410;-1.966;2024-02-14T18:47:49;2.55;;;0.80;;
61590;SDS011;71994;52.410;-1.966;2024-02-14T18:54:27;1.20;;;0.70;;
61590;SDS011;71994;52.410;-1.966;2024-02-14T18:57:47;1.35;;;0.77;;
61590;SDS011;71994;52.410;-1.966;2024-02-14T19:00:53;1.77;;;0.80;;
61590;SDS011;71994;52.410;-1.966;2024-02-14T19:04:00;1.33;;;0.60;;
61590;SDS011;71994;52.410;-1.966;2024-02-14T19:07:09;1.55;;;0.70;;
61590;SDS011;71994;52.410;-1.966;2024-02-14T19:10:16;1.23;;;0.68;;
61590;SDS011;71994;52.410;-1.966;2024-02-14T19:13:26;1.00;;;0.60;;
61590;SDS011;71994;52.410;-1.966;2024-02-14T19:16:32;1.63;;;0.80;;
61590;SDS011;71994;52.410;-1.966;2024-02-14T19:19:42;2.50;;;0.52;;
61590;SDS011;71994;52.410;-1.966;2024-02-14T19:22:50;2.67;;;0.70;;
61590;SDS011;71994;52.410;-1.966;2024-02-14T19:25:57;1.10;;;0.60;;
61590;SDS011;71994;52.410;-1.966;2024-02-14T19:29:16;4.00;;;0.80;;
61590;SDS011;71994;52.410;-1.966;2024-02-14T19:32:27;1.67;;;0.70;;
61590;SDS011;71994;52.410;-1.966;2024-02-14T19:39:20;2.08;;;0.90;;
61590;SDS011;71994;52.410;-1.966;2024-02-14T19:42:35;1.10;;;0.70;;
61590;SDS011;71994;52.410;-1.966;2024-02-14T19:46:11;1.47;;;0.70;;
61590;SDS011;71994;52.410;-1.966;2024-02-14T19:49:24;1.20;;;0.68;;
61590;SDS011;71994;52.410;-1.966;2024-02-14T19:52:38;1.65;;;0.70;;
61590;SDS011;71994;52.410;-1.966;2024-02-14T19:55:57;1.70;;;0.80;;
61590;SDS011;71994;52.410;-1.966;2024-02-14T19:59:04;1.60;;;0.80;;
61590;SDS011;71994;52.410;-1.966;2024-02-14T20:02:39;1.27;;;0.75;;
61590;SDS011;71994;52.410;-1.966;2024-02-14T20:06:00;1.02;;;0.70;;
61590;SDS011;71994;52.410;-1.966;2024-02-14T20:09:16;1.75;;;0.75;;
61590;SDS011;71994;52.410;-1.966;2024-02-14T20:12:38;1.10;;;0.70;;
61590;SDS011;71994;52.410;-1.966;2024-02-14T20:16:37;2.97;;;0.80;;
61590;SDS011;71994;52.410;-1.966;2024-02-14T20:20:14;2.05;;;0.68;;
61590;SDS011;71994;52.410;-1.966;2024-02-14T20:23:32;1.42;;;0.60;;
61590;SDS011;71994;52.410;-1.966;2024-02-14T20:26:46;1.20;;;0.57;;
61590;SDS011;71994;52.410;-1.966;2024-02-14T20:29:56;1.38;;;0.70;;
61590;SDS011;71994;52.410;-1.966;2024-02-14T20:33:32;1.88;;;0.60;;
61590;SDS011;71994;52.410;-1.966;2024-02-14T20:39:59;1.20;;;0.65;;
61590;SDS011;71994;52.410;-1.966;2024-02-14T20:48:16;1.55;;;0.70;;